首页
METAR-TAF:

METAR-TAF

机场 :

卡托维兹, 波兰

纬度: 50-28-27N, 经度: 019-04-48E, 海拔: 284米

当前天气观测

该预报发布于15分钟前的20:00 UTC
风速7节,风向南转西南
温度 5°C
湿度 35%
气压 1008 hPa
能见度10公里或以上
1500米以下无云,无积雨云

METAR: EPKT 022000Z 20007KT CAVOK 05/M09 Q1008

时间: 22:15 (20:15 UTC)

预报

该预报发布于2小时和45分钟前的17:30 UTC
预报有效从02日的 18点(UTC)到 03日的 18点(UTC)
风速12节,风向西转西南
能见度10公里或以上
1500米以下无云,无积雨云
几率 40% :
短暂存在
从 03日的 09点(UTC)到 03日的 16点(UTC)
风速15节,风向西转西南,有时为25节阵风
短暂存在
从 03日的 10点(UTC)到 03日的 12点(UTC)
多云层高于4000英尺, 塔状积云.
短暂存在
从 03日的 12点(UTC)到 03日的 16点(UTC)
多云层高于3000英尺, 积雨云.
阵雨

TAF: EPKT 021730Z 0218/0318 24012KT CAVOK PROB40 TEMPO 0309/0316 25015G25KT TEMPO 0310/0312 BKN040TCU TEMPO 0312/0316 SHRA BKN030CB

超过4000个机场的气象观测和天气预报(METAR&TAF报告)。

可查询的气象台以黄色和红色小点在地图上表示。

将鼠标移到小点上方,可查看气象台名称。

然后点击查看天气观测和预报。

如需切换地图:点击带黑十字的绿色按钮放大地图;点击带横线的绿色按钮缩小地图;或者点击绿色箭头查看邻近地区的地图。


METAR-TAF: